Time;durP1;ratioP1;P1;durP2;ratioP2;P2;SDS_P1;SDS_P2;PMS_P1;PMS_P2;Temp;Humidity;BMP_temperature;BMP_pressure;BME280_temperature;BME280_humidity;BME280_pressure;Samples;Min_cycle;Max_cycle;Signal;HPM_P1;HPM_P2
2023/09/02 00:00:32;;;;;;;10.68;8.73;;;20.40;70.20;;;;;;5038821;28;20033;-78
2023/09/02 00:02:57;;;;;;;10.75;8.88;;;20.40;70.20;;;;;;5057154;28;20044;-78
2023/09/02 00:05:24;;;;;;;9.55;8.55;;;20.40;70.20;;;;;;5038902;28;20090;-78
2023/09/02 00:07:49;;;;;;;10.57;8.82;;;20.40;70.20;;;;;;5055385;28;20036;-78
2023/09/02 00:10:15;;;;;;;10.63;9.10;;;20.40;70.20;;;;;;5038988;28;20025;-78
2023/09/02 00:12:41;;;;;;;9.68;8.68;;;20.40;70.30;;;;;;5038977;28;20363;-78
2023/09/02 00:15:08;;;;;;;10.25;9.15;;;20.40;70.30;;;;;;5056281;28;20438;-78
2023/09/02 00:17:35;;;;;;;9.48;8.27;;;20.40;70.40;;;;;;5055292;28;20025;-79
2023/09/02 00:20:07;;;;;;;10.07;8.90;;;20.40;70.40;;;;;;5038697;28;20146;-78
2023/09/02 00:22:34;;;;;;;8.88;7.97;;;20.40;70.50;;;;;;5039115;28;20047;-78
2023/09/02 00:25:00;;;;;;;9.85;8.85;;;20.40;70.40;;;;;;5038647;28;20025;-78
2023/09/02 00:27:25;;;;;;;9.93;8.77;;;20.40;70.40;;;;;;5055333;28;20037;-78
2023/09/02 00:29:51;;;;;;;10.05;8.82;;;20.30;70.40;;;;;;5038355;28;20048;-78
2023/09/02 00:32:17;;;;;;;10.18;8.93;;;20.30;70.40;;;;;;5055136;28;20170;-78
2023/09/02 00:34:44;;;;;;;9.55;8.35;;;20.30;70.40;;;;;;5054908;28;20048;-78
2023/09/02 00:37:09;;;;;;;9.07;8.18;;;20.30;70.50;;;;;;5054962;28;20036;-78
2023/09/02 00:39:35;;;;;;;9.77;8.77;;;20.30;70.50;;;;;;5038559;28;20029;-78
2023/09/02 00:42:03;;;;;;;10.20;8.27;;;20.30;70.50;;;;;;5038075;28;20485;-78
2023/09/02 00:44:29;;;;;;;11.15;7.88;;;20.30;70.50;;;;;;5054895;28;20103;-78
2023/09/02 00:46:58;;;;;;;10.82;8.73;;;20.30;70.50;;;;;;5055667;28;20608;-77
2023/09/02 00:49:24;;;;;;;9.70;8.70;;;20.30;70.50;;;;;;5039517;28;20032;-79
2023/09/02 00:51:50;;;;;;;9.30;8.30;;;20.30;70.50;;;;;;5056115;28;20086;-78
2023/09/02 00:54:16;;;;;;;9.05;7.65;;;20.20;70.50;;;;;;5055846;28;20041;-78
2023/09/02 00:56:42;;;;;;;9.98;8.40;;;20.20;70.50;;;;;;5039709;28;20029;-79
2023/09/02 00:59:07;;;;;;;9.45;7.80;;;20.20;70.50;;;;;;5042514;28;20065;-78
2023/09/02 01:01:35;;;;;;;10.18;8.50;;;20.20;70.50;;;;;;5040009;28;20048;-78
2023/09/02 01:04:04;;;;;;;9.40;7.95;;;20.20;70.50;;;;;;5056111;28;20025;-79
2023/09/02 01:06:31;;;;;;;10.05;8.38;;;20.20;70.60;;;;;;5038045;28;20381;-78
2023/09/02 01:08:57;;;;;;;9.05;8.10;;;20.20;70.60;;;;;;5053994;28;20033;-78
2023/09/02 01:11:23;;;;;;;9.45;8.15;;;20.20;70.60;;;;;;5054474;28;20474;-78
2023/09/02 01:13:48;;;;;;;9.38;7.18;;;20.10;70.50;;;;;;5037577;28;20117;-78
2023/09/02 01:16:14;;;;;;;8.75;7.43;;;20.10;70.50;;;;;;5054426;28;20029;-78
2023/09/02 01:18:40;;;;;;;8.82;7.43;;;20.10;70.50;;;;;;5038308;28;20065;-78
2023/09/02 01:21:32;;;;;;;9.63;7.68;;;20.10;70.50;;;;;;5037583;28;20036;-78
2023/09/02 01:24:29;;;;;;;8.25;6.90;;;20.10;70.70;;;;;;5054795;28;20025;-78
2023/09/02 01:27:35;;;;;;;8.82;7.20;;;20.10;70.60;;;;;;5054299;28;20033;-77
2023/09/02 01:30:21;;;;;;;8.68;7.15;;;20.10;70.60;;;;;;5032383;28;20463;-78
2023/09/02 01:32:52;;;;;;;7.45;6.30;;;20.10;71.30;;;;;;5058029;28;20036;-78
2023/09/02 01:35:23;;;;;;;9.30;7.43;;;20.00;70.50;;;;;;5054782;28;20029;-78
2023/09/02 01:37:55;;;;;;;8.15;6.90;;;20.00;70.60;;;;;;5037377;28;20025;-78
2023/09/02 01:40:24;;;;;;;8.15;6.93;;;20.00;70.60;;;;;;5037161;28;20115;-78
2023/09/02 01:42:51;;;;;;;8.00;7.00;;;20.00;71.30;;;;;;5021699;28;20073;-78
2023/09/02 01:45:22;;;;;;;9.07;7.70;;;20.00;70.60;;;;;;5053781;28;20040;-78
2023/09/02 01:47:49;;;;;;;8.32;6.97;;;20.00;70.70;;;;;;5053777;28;20120;-78
2023/09/02 01:50:19;;;;;;;8.10;7.20;;;20.00;70.70;;;;;;5037167;28;20021;-78
2023/09/02 01:52:47;;;;;;;8.52;7.63;;;20.00;70.70;;;;;;5053665;28;20083;-78
2023/09/02 01:55:12;;;;;;;8.85;7.95;;;20.00;70.70;;;;;;5053742;28;20029;-78
2023/09/02 01:57:40;;;;;;;9.35;7.30;;;20.00;70.70;;;;;;5036974;28;20604;-78
2023/09/02 02:00:06;;;;;;;8.73;7.32;;;20.00;70.70;;;;;;5021356;28;20339;-78
2023/09/02 02:02:38;;;;;;;7.68;6.88;;;20.00;71.30;;;;;;5037304;28;20583;-77
2023/09/02 02:05:06;;;;;;;8.10;6.60;;;20.00;70.70;;;;;;5020071;28;20032;-77
2023/09/02 02:07:35;;;;;;;7.68;6.68;;;20.00;70.70;;;;;;5053345;28;20041;-77
2023/09/02 02:10:05;;;;;;;8.38;6.65;;;20.00;70.70;;;;;;5053707;28;20055;-78
2023/09/02 02:12:32;;;;;;;8.02;7.20;;;20.00;70.70;;;;;;5054265;28;20033;-78
2023/09/02 02:14:57;;;;;;;7.05;6.30;;;19.90;70.70;;;;;;5038045;28;20085;-78
2023/09/02 02:17:23;;;;;;;8.15;6.85;;;20.00;70.80;;;;;;5053841;28;20370;-78
2023/09/02 02:19:49;;;;;;;8.35;7.18;;;19.90;70.70;;;;;;5021091;28;20029;-78
2023/09/02 02:22:15;;;;;;;7.88;7.07;;;19.90;70.70;;;;;;5054068;28;20131;-78
2023/09/02 02:24:41;;;;;;;8.13;6.97;;;20.00;70.80;;;;;;5053556;28;20057;-78
2023/09/02 02:27:06;;;;;;;7.70;6.60;;;19.90;70.70;;;;;;5053399;28;20040;-78
2023/09/02 02:29:32;;;;;;;8.10;6.75;;;20.00;70.80;;;;;;5052726;28;20079;-78
2023/09/02 02:31:58;;;;;;;7.95;6.55;;;19.90;70.70;;;;;;5020143;28;20128;-78
2023/09/02 02:34:24;;;;;;;8.40;7.15;;;19.90;70.70;;;;;;5036503;28;20044;-77
2023/09/02 02:36:49;;;;;;;8.45;7.30;;;19.90;70.70;;;;;;5054233;28;20052;-78
2023/09/02 02:39:16;;;;;;;8.65;7.28;;;19.90;70.70;;;;;;5036409;28;20114;-78
2023/09/02 02:41:42;;;;;;;8.45;6.82;;;20.00;70.80;;;;;;5054113;28;20040;-78
2023/09/02 02:44:10;;;;;;;8.48;7.47;;;19.90;70.70;;;;;;5036254;28;20033;-78
2023/09/02 02:46:36;;;;;;;8.07;6.95;;;20.00;70.80;;;;;;5036326;28;20033;-79
2023/09/02 02:49:02;;;;;;;8.13;6.80;;;19.90;70.70;;;;;;5052993;28;20116;-78
2023/09/02 02:51:27;;;;;;;8.20;6.93;;;19.90;70.70;;;;;;5036258;28;20032;-78
2023/09/02 02:53:53;;;;;;;8.40;7.07;;;19.90;70.70;;;;;;5036192;28;20041;-78
2023/09/02 02:56:19;;;;;;;8.25;6.90;;;19.90;70.80;;;;;;5019772;28;20033;-79
2023/09/02 02:58:45;;;;;;;8.10;7.00;;;19.90;70.80;;;;;;5053146;28;20112;-77
2023/09/02 03:01:12;;;;;;;8.35;6.72;;;19.90;70.70;;;;;;5052413;28;20140;-78
2023/09/02 03:03:40;;;;;;;8.55;7.13;;;19.90;70.80;;;;;;5036127;28;20033;-78
2023/09/02 03:06:06;;;;;;;8.32;6.82;;;19.90;70.80;;;;;;5020592;28;20025;-79
2023/09/02 03:08:34;;;;;;;7.70;6.30;;;19.90;70.80;;;;;;5036208;28;20158;-79
2023/09/02 03:11:02;;;;;;;7.93;6.40;;;19.90;70.80;;;;;;5052617;28;20056;-79
2023/09/02 03:13:33;;;;;;;8.60;6.80;;;19.90;70.80;;;;;;5053375;28;20079;-78
2023/09/02 03:16:03;;;;;;;7.70;6.78;;;19.90;70.80;;;;;;5052837;28;20029;-78
2023/09/02 03:18:30;;;;;;;8.38;7.18;;;19.90;70.80;;;;;;5055618;28;20028;-78
2023/09/02 03:21:05;;;;;;;8.55;7.25;;;19.90;70.80;;;;;;5039891;28;20530;-78
2023/09/02 03:23:33;;;;;;;8.02;6.43;;;19.90;70.80;;;;;;5040112;28;20029;-78
2023/09/02 03:26:22;;;;;;;8.50;6.97;;;19.90;70.80;;;;;;5040133;28;20036;-78
2023/09/02 03:28:50;;;;;;;7.32;6.25;;;19.90;70.90;;;;;;5056520;28;20028;-78
2023/09/02 03:31:17;;;;;;;7.88;6.78;;;19.90;70.70;;;;;;5056587;28;20083;-78
2023/09/02 03:33:44;;;;;;;8.00;6.57;;;19.90;70.80;;;;;;5056309;28;20045;-78
2023/09/02 03:36:16;;;;;;;8.10;6.72;;;19.90;70.80;;;;;;5040239;28;20040;-78
2023/09/02 03:38:43;;;;;;;8.57;6.45;;;19.90;71.10;;;;;;5056445;28;20025;-78
2023/09/02 03:41:17;;;;;;;8.07;6.50;;;19.90;70.80;;;;;;5039717;28;20033;-78
2023/09/02 03:43:43;;;;;;;8.57;6.75;;;19.90;70.80;;;;;;5059535;28;20037;-78
2023/09/02 03:46:09;;;;;;;7.55;6.38;;;19.90;70.80;;;;;;5050244;28;20482;-78
2023/09/02 03:48:35;;;;;;;7.57;6.45;;;19.90;70.80;;;;;;5039617;28;20037;-78
2023/09/02 03:51:11;;;;;;;8.52;6.50;;;19.90;70.80;;;;;;5056223;28;20431;-78
2023/09/02 03:53:41;;;;;;;8.32;6.82;;;19.90;70.80;;;;;;5040494;28;20028;-79
2023/09/02 03:56:08;;;;;;;7.50;6.40;;;19.90;70.80;;;;;;5056046;28;20458;-78
2023/09/02 03:58:36;;;;;;;8.10;6.45;;;19.90;70.80;;;;;;5039260;28;20025;-78
2023/09/02 04:01:03;;;;;;;8.20;6.50;;;19.90;70.80;;;;;;5022685;28;20056;-78
2023/09/02 04:03:35;;;;;;;8.23;6.50;;;19.80;70.80;;;;;;5040141;28;20033;-78
2023/09/02 04:06:02;;;;;;;8.07;6.55;;;19.80;70.80;;;;;;5039587;28;20102;-78
2023/09/02 04:08:28;;;;;;;7.70;6.10;;;19.90;70.80;;;;;;5039001;28;20052;-78
2023/09/02 04:10:56;;;;;;;7.75;6.57;;;19.90;70.80;;;;;;5055584;28;20466;-78
2023/09/02 04:13:26;;;;;;;8.25;6.45;;;19.80;70.80;;;;;;5039180;28;20052;-78
2023/09/02 04:15:59;;;;;;;7.68;6.18;;;19.90;70.90;;;;;;5043192;28;20027;-78
2023/09/02 04:18:27;;;;;;;8.48;6.80;;;19.90;70.90;;;;;;5058988;28;20031;-79
2023/09/02 04:20:54;;;;;;;8.38;6.32;;;19.80;70.80;;;;;;5039928;28;20036;-78
2023/09/02 04:23:21;;;;;;;8.15;6.75;;;19.80;70.80;;;;;;5057956;28;20470;-78
2023/09/02 04:25:50;;;;;;;8.55;7.15;;;19.80;70.80;;;;;;5058092;28;20033;-78
2023/09/02 04:28:18;;;;;;;8.38;6.57;;;19.80;70.90;;;;;;5055753;28;20032;-78
2023/09/02 04:30:44;;;;;;;8.63;6.90;;;19.90;70.90;;;;;;5038840;28;20139;-79
2023/09/02 04:33:13;;;;;;;9.23;7.55;;;19.80;70.90;;;;;;5055488;28;20025;-78
2023/09/02 04:35:40;;;;;;;8.70;7.25;;;19.80;70.90;;;;;;5038675;28;20036;-78
2023/09/02 04:38:06;;;;;;;9.95;7.50;;;19.80;70.90;;;;;;5038928;28;20036;-78
2023/09/02 04:40:40;;;;;;;8.13;6.47;;;19.80;70.90;;;;;;5038432;28;20461;-78
2023/09/02 04:43:07;;;;;;;8.15;6.68;;;19.90;71.00;;;;;;5054884;28;20041;-79
2023/09/02 04:45:34;;;;;;;9.63;7.50;;;19.80;71.00;;;;;;5054950;28;20181;-78
2023/09/02 04:48:03;;;;;;;9.40;8.02;;;19.80;70.90;;;;;;5054757;28;20044;-78
2023/09/02 04:50:32;;;;;;;8.23;6.45;;;19.80;71.00;;;;;;5054886;28;20025;-78
2023/09/02 04:52:59;;;;;;;8.25;6.50;;;19.80;70.90;;;;;;5038720;28;20488;-78
2023/09/02 04:55:29;;;;;;;8.98;6.85;;;19.80;71.00;;;;;;5038945;28;20041;-79
2023/09/02 04:57:57;;;;;;;9.57;7.13;;;19.80;70.90;;;;;;5040099;28;20036;-78
2023/09/02 05:00:24;;;;;;;8.88;7.10;;;19.80;71.00;;;;;;5054902;28;20523;-78
2023/09/02 05:02:51;;;;;;;8.63;6.78;;;19.80;71.00;;;;;;5021631;28;20049;-79
2023/09/02 05:05:18;;;;;;;9.23;6.93;;;19.80;71.00;;;;;;5054430;28;20040;-79
2023/09/02 05:07:45;;;;;;;8.90;6.90;;;19.80;71.00;;;;;;5055777;28;20036;-78
2023/09/02 05:10:14;;;;;;;9.38;6.88;;;19.80;71.00;;;;;;5039070;28;20028;-79
2023/09/02 05:12:41;;;;;;;9.55;6.65;;;19.80;71.10;;;;;;5038038;28;20072;-79
2023/09/02 05:15:08;;;;;;;8.00;6.55;;;19.80;71.00;;;;;;5038748;28;20029;-78
2023/09/02 05:17:34;;;;;;;9.60;7.25;;;19.80;71.10;;;;;;5038981;28;20033;-79
2023/09/02 05:20:01;;;;;;;9.07;7.05;;;19.80;71.00;;;;;;5023786;28;20554;-78
2023/09/02 05:22:28;;;;;;;8.43;6.65;;;19.80;71.10;;;;;;5039657;28;20045;-78
2023/09/02 05:24:53;;;;;;;9.38;7.43;;;19.80;71.70;;;;;;5037702;28;20033;-79
2023/09/02 05:27:20;;;;;;;9.80;7.40;;;19.80;71.10;;;;;;5055269;28;20044;-78
2023/09/02 05:29:46;;;;;;;9.88;7.63;;;19.80;71.10;;;;;;5041925;28;20053;-78
2023/09/02 05:32:13;;;;;;;8.82;6.88;;;19.80;71.10;;;;;;5033203;28;20044;-78
2023/09/02 05:34:40;;;;;;;8.68;6.55;;;19.80;71.20;;;;;;5039978;28;20469;-78
2023/09/02 05:37:06;;;;;;;8.82;6.88;;;19.80;71.20;;;;;;5055499;28;20029;-78
2023/09/02 05:39:31;;;;;;;8.65;6.75;;;19.80;71.20;;;;;;5037878;28;20060;-78
2023/09/02 05:41:57;;;;;;;8.55;6.70;;;19.80;71.20;;;;;;5055168;28;20041;-78
2023/09/02 05:44:23;;;;;;;9.73;7.20;;;19.80;71.20;;;;;;5038239;28;20405;-78
2023/09/02 05:46:49;;;;;;;9.95;7.18;;;19.80;71.20;;;;;;5057357;28;20033;-78
2023/09/02 05:49:14;;;;;;;8.77;7.13;;;19.80;71.20;;;;;;5063284;28;20089;-78
2023/09/02 05:51:40;;;;;;;8.45;6.65;;;19.80;71.10;;;;;;5055338;28;20086;-78
2023/09/02 05:54:08;;;;;;;9.75;7.13;;;19.80;71.20;;;;;;5021338;28;20040;-78
2023/09/02 05:56:34;;;;;;;8.85;6.82;;;19.80;71.20;;;;;;5039189;28;20116;-78
2023/09/02 05:59:00;;;;;;;8.63;6.75;;;19.80;71.20;;;;;;5037040;28;20175;-78
2023/09/02 06:01:26;;;;;;;8.07;6.15;;;19.80;71.20;;;;;;5037288;28;20039;-78
2023/09/02 06:03:52;;;;;;;8.57;6.75;;;19.80;71.20;;;;;;5037528;28;20112;-79
2023/09/02 06:06:17;;;;;;;8.05;6.65;;;19.80;71.10;;;;;;5059000;28;20120;-78
2023/09/02 06:08:43;;;;;;;9.50;7.20;;;19.80;71.20;;;;;;5040080;28;20045;-79
2023/09/02 06:11:09;;;;;;;8.90;7.15;;;19.80;71.10;;;;;;5038704;28;20116;-78
2023/09/02 06:13:35;;;;;;;8.30;6.47;;;19.80;71.20;;;;;;5056245;28;20036;-78
2023/09/02 06:16:03;;;;;;;8.90;6.53;;;19.80;71.20;;;;;;5040587;28;20033;-79
2023/09/02 06:18:29;;;;;;;9.00;7.15;;;19.80;71.20;;;;;;5057386;28;20024;-78
2023/09/02 06:20:55;;;;;;;9.50;7.43;;;19.80;71.20;;;;;;5040059;28;20040;-78
2023/09/02 06:23:24;;;;;;;9.35;7.22;;;19.80;71.20;;;;;;5041123;28;20132;-79
2023/09/02 06:26:00;;;;;;;8.52;6.50;;;19.80;71.20;;;;;;5040993;28;20037;-79
2023/09/02 06:28:27;;;;;;;8.85;6.45;;;19.80;71.30;;;;;;5055394;28;20021;-78
2023/09/02 06:30:53;;;;;;;8.57;6.70;;;19.80;71.20;;;;;;5056210;28;20053;-78
2023/09/02 06:33:20;;;;;;;8.48;6.72;;;19.80;71.30;;;;;;5057100;28;20496;-78
2023/09/02 06:35:46;;;;;;;8.65;6.80;;;19.80;71.40;;;;;;5053788;28;20425;-78
2023/09/02 06:38:12;;;;;;;7.78;6.00;;;19.80;71.30;;;;;;5036601;28;20496;-78
2023/09/02 06:40:38;;;;;;;8.98;6.40;;;19.80;71.30;;;;;;5053329;28;20110;-78
2023/09/02 06:43:04;;;;;;;8.30;6.60;;;19.80;71.30;;;;;;5036076;28;20037;-78
2023/09/02 06:45:29;;;;;;;8.73;6.88;;;19.80;71.30;;;;;;5053205;28;20434;-78
2023/09/02 06:47:55;;;;;;;8.77;6.47;;;19.80;71.30;;;;;;5036102;28;20032;-79
2023/09/02 06:50:21;;;;;;;9.18;6.95;;;19.80;71.30;;;;;;5019759;28;20083;-78
2023/09/02 06:52:47;;;;;;;9.95;7.15;;;19.80;71.30;;;;;;5053005;28;20080;-78
2023/09/02 06:55:14;;;;;;;8.35;6.80;;;19.90;71.40;;;;;;5036098;28;20037;-78
2023/09/02 06:57:42;;;;;;;9.02;6.97;;;19.80;71.30;;;;;;5036352;28;20028;-79
2023/09/02 07:00:09;;;;;;;8.60;6.47;;;19.90;71.40;;;;;;5053616;28;20060;-79
2023/09/02 07:02:34;;;;;;;8.43;6.03;;;19.80;71.30;;;;;;5019586;28;20037;-78
2023/09/02 07:05:00;;;;;;;9.23;7.15;;;19.90;71.40;;;;;;5052907;28;20037;-78
2023/09/02 07:07:26;;;;;;;8.40;6.50;;;19.90;71.40;;;;;;5037002;28;20377;-78
2023/09/02 07:09:52;;;;;;;9.95;7.20;;;19.90;71.40;;;;;;5052326;28;20033;-79
2023/09/02 07:12:18;;;;;;;8.35;6.38;;;19.90;71.30;;;;;;5036073;28;20033;-79
2023/09/02 07:14:44;;;;;;;7.88;6.20;;;19.90;71.40;;;;;;5020383;28;20037;-79
2023/09/02 07:17:10;;;;;;;8.85;6.60;;;19.90;71.30;;;;;;5036644;28;20433;-79
2023/09/02 07:19:36;;;;;;;8.15;6.20;;;19.90;71.30;;;;;;5053294;28;20039;-78
2023/09/02 07:22:02;;;;;;;8.02;6.22;;;19.90;71.30;;;;;;5035804;28;20124;-79
2023/09/02 07:24:28;;;;;;;8.63;6.80;;;19.90;71.30;;;;;;5036008;28;20128;-78
2023/09/02 07:26:54;;;;;;;8.52;6.53;;;19.90;71.40;;;;;;5052755;28;20108;-78
2023/09/02 07:29:20;;;;;;;8.48;6.70;;;19.90;71.40;;;;;;5035658;28;20507;-78
2023/09/02 07:31:46;;;;;;;8.20;6.45;;;19.90;71.40;;;;;;5053815;28;20040;-78
2023/09/02 07:34:12;;;;;;;8.52;6.38;;;19.90;71.40;;;;;;5036871;28;20128;-79
2023/09/02 07:36:38;;;;;;;8.63;6.53;;;19.90;71.40;;;;;;5052756;28;20075;-78
2023/09/02 07:39:04;;;;;;;7.60;6.10;;;19.90;71.40;;;;;;5036337;28;20029;-78
2023/09/02 07:41:30;;;;;;;8.20;6.53;;;19.90;71.40;;;;;;5036239;28;20045;-78
2023/09/02 07:43:56;;;;;;;8.55;6.28;;;19.90;71.40;;;;;;5054810;28;20033;-78
2023/09/02 07:46:22;;;;;;;8.25;6.35;;;19.90;71.40;;;;;;5036147;28;20037;-79
2023/09/02 07:48:49;;;;;;;8.35;6.25;;;19.90;71.50;;;;;;5035630;28;20037;-78
2023/09/02 07:51:21;;;;;;;9.10;6.85;;;19.90;71.50;;;;;;5051889;28;20060;-79
2023/09/02 07:53:47;;;;;;;8.65;6.70;;;20.00;71.60;;;;;;5052565;28;20119;-78
2023/09/02 07:56:13;;;;;;;7.35;6.07;;;20.00;71.60;;;;;;5052527;28;20386;-79
2023/09/02 07:58:42;;;;;;;8.25;6.63;;;20.00;71.60;;;;;;5051650;28;20040;-78
2023/09/02 08:01:08;;;;;;;8.52;6.82;;;20.00;71.60;;;;;;5052638;28;20039;-78
2023/09/02 08:03:33;;;;;;;8.77;6.90;;;20.00;71.60;;;;;;5036289;28;20120;-78
2023/09/02 08:06:06;;;;;;;8.13;6.28;;;20.00;71.50;;;;;;5055784;28;20116;-78
2023/09/02 08:08:32;;;;;;;7.72;6.20;;;20.00;71.60;;;;;;5039134;28;20053;-79
2023/09/02 08:11:02;;;;;;;8.82;6.65;;;20.00;71.50;;;;;;5055995;28;20028;-78
2023/09/02 08:13:27;;;;;;;8.20;6.63;;;20.10;71.60;;;;;;5039970;28;20033;-78
2023/09/02 08:15:53;;;;;;;8.35;6.43;;;20.00;71.50;;;;;;5052955;28;20063;-79
2023/09/02 08:18:19;;;;;;;7.80;6.30;;;20.00;71.50;;;;;;5069821;28;20033;-78
2023/09/02 08:20:44;;;;;;;7.68;6.38;;;20.10;71.60;;;;;;5046186;28;20029;-78
2023/09/02 08:23:10;;;;;;;8.48;6.57;;;20.10;71.60;;;;;;5055620;28;20486;-78
2023/09/02 08:25:36;;;;;;;7.70;6.10;;;20.10;71.50;;;;;;5055152;28;20037;-79
2023/09/02 08:28:02;;;;;;;8.02;6.57;;;20.10;71.50;;;;;;5022692;28;20033;-78
2023/09/02 08:30:27;;;;;;;8.40;6.32;;;20.10;71.50;;;;;;5056949;28;20123;-78
2023/09/02 08:32:53;;;;;;;7.65;6.03;;;20.10;71.50;;;;;;5057260;28;20549;-79
2023/09/02 08:35:19;;;;;;;8.48;6.75;;;20.10;71.50;;;;;;5055028;28;20032;-79
2023/09/02 08:37:44;;;;;;;8.35;6.38;;;20.10;71.50;;;;;;5056476;28;20033;-79
2023/09/02 08:40:10;;;;;;;7.90;6.25;;;20.20;71.50;;;;;;5054986;28;20072;-79
2023/09/02 08:42:38;;;;;;;7.95;6.03;;;20.20;71.50;;;;;;5038195;28;20036;-78
2023/09/02 08:45:08;;;;;;;7.70;5.88;;;20.20;71.50;;;;;;5021746;28;20054;-79
2023/09/02 08:47:37;;;;;;;7.15;5.85;;;20.20;71.50;;;;;;5038117;28;20033;-78
2023/09/02 08:50:04;;;;;;;7.55;5.68;;;20.20;71.40;;;;;;5055775;28;20025;-78
2023/09/02 08:52:30;;;;;;;7.95;6.32;;;20.20;71.40;;;;;;5054756;28;20029;-78
2023/09/02 08:54:56;;;;;;;8.00;5.82;;;20.30;71.40;;;;;;5038057;28;20032;-78
2023/09/02 08:57:22;;;;;;;6.80;5.57;;;20.30;71.40;;;;;;5054594;28;20029;-78
2023/09/02 08:59:48;;;;;;;8.07;6.15;;;20.30;71.40;;;;;;5037990;28;20123;-78
2023/09/02 09:02:15;;;;;;;7.70;5.57;;;20.30;71.30;;;;;;5054330;28;20116;-78
2023/09/02 09:04:41;;;;;;;6.80;5.55;;;20.40;71.30;;;;;;5038557;28;20040;-79
2023/09/02 09:07:09;;;;;;;6.75;5.18;;;20.40;71.30;;;;;;5054950;28;20036;-78
2023/09/02 09:09:36;;;;;;;7.10;5.55;;;20.40;71.20;;;;;;5055856;28;20067;-78
2023/09/02 09:12:03;;;;;;;6.22;4.80;;;20.40;71.20;;;;;;5055534;28;20034;-78
2023/09/02 09:14:36;;;;;;;6.82;5.25;;;20.40;71.20;;;;;;5036904;28;20031;-78
2023/09/02 09:17:03;;;;;;;7.47;5.72;;;20.50;71.20;;;;;;5053709;28;20028;-80
2023/09/02 09:19:29;;;;;;;7.30;5.35;;;20.50;71.20;;;;;;5054404;28;20098;-78
2023/09/02 09:21:55;;;;;;;7.13;5.30;;;20.50;71.10;;;;;;5054038;28;20033;-78
2023/09/02 09:24:21;;;;;;;7.68;5.78;;;20.50;71.00;;;;;;5054043;28;20021;-79
2023/09/02 09:26:48;;;;;;;6.70;5.32;;;20.60;71.00;;;;;;5037618;28;20036;-78
2023/09/02 09:29:16;;;;;;;6.30;4.82;;;20.60;71.00;;;;;;5037289;28;20362;-79
2023/09/02 09:31:43;;;;;;;6.35;5.15;;;20.60;71.00;;;;;;5054481;28;20048;-78
2023/09/02 09:34:09;;;;;;;6.60;5.10;;;20.70;70.90;;;;;;5020705;28;20033;-79
2023/09/02 09:36:36;;;;;;;6.07;4.43;;;20.70;70.90;;;;;;5037089;28;20103;-78
2023/09/02 09:39:02;;;;;;;7.38;5.70;;;20.70;70.80;;;;;;5053459;28;20029;-78
2023/09/02 09:41:29;;;;;;;6.63;4.82;;;20.70;70.80;;;;;;5053979;28;20045;-78
2023/09/02 09:44:10;;;;;;;6.75;5.30;;;20.80;70.70;;;;;;5054045;28;20037;-78
2023/09/02 09:46:56;;;;;;;6.35;5.00;;;20.80;70.80;;;;;;5037360;28;20037;-79
2023/09/02 09:49:26;;;;;;;6.93;5.13;;;20.90;70.70;;;;;;5054488;28;20047;-78
2023/09/02 09:52:01;;;;;;;5.68;4.57;;;20.90;70.70;;;;;;5054795;28;20032;-78
2023/09/02 09:54:50;;;;;;;6.43;4.63;;;20.90;70.70;;;;;;5037631;28;20029;-78
2023/09/02 09:57:29;;;;;;;5.72;4.38;;;21.00;70.70;;;;;;5054866;28;20029;-78
2023/09/02 09:59:55;;;;;;;6.60;5.10;;;21.00;70.60;;;;;;5053724;28;20056;-78
2023/09/02 10:02:21;;;;;;;5.90;4.78;;;21.10;70.60;;;;;;5053455;28;20064;-78
2023/09/02 10:04:55;;;;;;;5.53;4.30;;;21.10;70.50;;;;;;5037505;28;20083;-78
2023/09/02 10:07:25;;;;;;;6.20;4.90;;;21.20;70.60;;;;;;5053499;28;20517;-78
2023/09/02 10:09:58;;;;;;;5.70;4.60;;;21.20;70.40;;;;;;5053454;28;20116;-79
2023/09/02 10:12:23;;;;;;;6.20;4.70;;;21.20;70.40;;;;;;5054018;28;20029;-78
2023/09/02 10:14:50;;;;;;;6.53;4.95;;;21.30;70.40;;;;;;5054038;28;20094;-78
2023/09/02 10:17:17;;;;;;;6.55;5.07;;;21.30;70.40;;;;;;5036053;28;20025;-79
2023/09/02 10:19:44;;;;;;;6.57;5.20;;;21.40;70.50;;;;;;5036376;28;20033;-78
2023/09/02 10:22:19;;;;;;;6.10;4.97;;;21.40;70.50;;;;;;5052580;28;20216;-79
2023/09/02 10:24:51;;;;;;;5.80;4.65;;;21.50;70.40;;;;;;5053185;28;20021;-78
2023/09/02 10:27:22;;;;;;;5.90;4.53;;;21.50;70.30;;;;;;5053325;28;20039;-78
2023/09/02 10:29:57;;;;;;;5.43;4.45;;;21.60;70.40;;;;;;5053700;28;20060;-78
2023/09/02 10:32:28;;;;;;;5.55;4.28;;;21.60;70.20;;;;;;5054579;28;20048;-78
2023/09/02 10:35:07;;;;;;;6.38;5.10;;;21.70;70.20;;;;;;5052763;28;20090;-78
2023/09/02 10:37:54;;;;;;;6.07;4.60;;;21.80;70.30;;;;;;5053057;28;20377;-78
2023/09/02 10:40:23;;;;;;;6.88;4.88;;;21.80;70.20;;;;;;5052372;28;20033;-78
2023/09/02 10:42:52;;;;;;;6.70;5.20;;;21.90;70.10;;;;;;5035902;28;20028;-78
2023/09/02 10:45:18;;;;;;;6.22;4.60;;;21.90;70.10;;;;;;5036131;28;20037;-78
2023/09/02 10:47:45;;;;;;;5.72;4.45;;;21.90;70.10;;;;;;5052184;28;20029;-78
2023/09/02 10:50:12;;;;;;;5.60;4.70;;;22.00;70.00;;;;;;5036272;28;20036;-78
2023/09/02 10:52:38;;;;;;;6.55;4.97;;;22.10;70.00;;;;;;5052270;28;20120;-78
2023/09/02 10:55:08;;;;;;;6.18;4.55;;;22.10;70.00;;;;;;5051810;28;20566;-78
2023/09/02 10:57:50;;;;;;;5.70;4.40;;;22.20;70.10;;;;;;5052471;28;20037;-79
2023/09/02 11:00:29;;;;;;;5.05;4.07;;;22.20;70.10;;;;;;5052341;28;20078;-78
2023/09/02 11:02:57;;;;;;;5.63;4.57;;;22.20;69.90;;;;;;5036302;28;20033;-78
2023/09/02 11:05:25;;;;;;;5.80;4.43;;;22.30;69.90;;;;;;5020220;28;20025;-78
2023/09/02 11:07:53;;;;;;;5.63;4.55;;;22.30;69.90;;;;;;5036443;28;20036;-79
2023/09/02 11:10:19;;;;;;;6.28;4.95;;;22.40;69.90;;;;;;5053453;28;20028;-79
2023/09/02 11:13:00;;;;;;;4.80;3.97;;;22.40;69.80;;;;;;5054779;28;20063;-78
2023/09/02 11:15:29;;;;;;;5.93;4.45;;;22.40;69.80;;;;;;5052673;28;20025;-79
2023/09/02 11:17:55;;;;;;;5.32;4.22;;;22.50;69.70;;;;;;5052913;28;20060;-78
2023/09/02 11:20:25;;;;;;;5.63;4.43;;;22.50;69.70;;;;;;5054538;28;20104;-78
2023/09/02 11:22:55;;;;;;;5.00;4.10;;;22.50;69.70;;;;;;5053425;28;20053;-78
2023/09/02 11:25:27;;;;;;;6.03;4.90;;;22.50;69.60;;;;;;5052106;28;20033;-78
2023/09/02 11:27:55;;;;;;;6.07;4.60;;;22.60;69.70;;;;;;5053595;28;20071;-78
2023/09/02 11:30:24;;;;;;;5.38;4.10;;;22.60;69.60;;;;;;5051642;28;20114;-78
2023/09/02 11:32:50;;;;;;;5.85;4.40;;;22.60;69.60;;;;;;5052910;28;20091;-78
2023/09/02 11:35:23;;;;;;;5.68;4.45;;;22.70;69.60;;;;;;5035650;28;20037;-78
2023/09/02 11:37:49;;;;;;;5.68;4.35;;;22.70;69.60;;;;;;5053076;28;20025;-78
2023/09/02 11:40:16;;;;;;;5.05;4.00;;;22.80;69.60;;;;;;5040125;28;20107;-78
2023/09/02 11:42:59;;;;;;;5.63;4.30;;;22.80;69.60;;;;;;5055843;28;20496;-78
2023/09/02 11:45:29;;;;;;;5.65;4.22;;;22.80;69.50;;;;;;5039353;28;20029;-79
2023/09/02 11:47:55;;;;;;;5.57;4.40;;;22.80;69.50;;;;;;5039270;28;20122;-78
2023/09/02 11:50:22;;;;;;;4.82;3.80;;;22.80;70.10;;;;;;5056316;28;20043;-78
2023/09/02 11:52:58;;;;;;;5.55;4.35;;;22.90;69.40;;;;;;5057807;28;20037;-79
2023/09/02 11:55:24;;;;;;;4.80;3.92;;;22.90;69.40;;;;;;5056049;28;20103;-78
2023/09/02 11:57:51;;;;;;;4.88;3.92;;;23.00;69.40;;;;;;5038839;28;20029;-78
2023/09/02 12:00:19;;;;;;;4.68;3.53;;;23.00;69.30;;;;;;5039054;28;20029;-78
2023/09/02 12:02:46;;;;;;;4.13;3.40;;;23.00;69.30;;;;;;5055618;28;20045;-78
2023/09/02 12:05:14;;;;;;;4.68;3.90;;;23.00;69.30;;;;;;5055623;28;20032;-78
2023/09/02 12:07:45;;;;;;;5.10;3.90;;;23.10;69.30;;;;;;5055154;28;20033;-78
2023/09/02 12:10:13;;;;;;;5.20;4.00;;;23.10;69.20;;;;;;5056366;28;20534;-78
2023/09/02 12:12:47;;;;;;;4.63;3.65;;;23.10;69.10;;;;;;5039209;28;20164;-78
2023/09/02 12:15:15;;;;;;;4.88;3.85;;;23.20;69.20;;;;;;5055728;28;20118;-78
2023/09/02 12:17:42;;;;;;;5.03;3.83;;;23.20;69.10;;;;;;5022169;28;20068;-78
2023/09/02 12:20:11;;;;;;;4.65;3.88;;;23.20;69.00;;;;;;5055269;28;20078;-78
2023/09/02 12:22:37;;;;;;;4.78;3.60;;;23.20;69.00;;;;;;5038533;28;20089;-78
2023/09/02 12:25:13;;;;;;;4.72;3.70;;;23.20;69.00;;;;;;5056057;28;20029;-78
2023/09/02 12:27:39;;;;;;;4.65;3.90;;;23.30;69.00;;;;;;5038430;28;20025;-78
2023/09/02 12:30:06;;;;;;;4.25;3.40;;;23.30;68.90;;;;;;5021835;28;20033;-78
2023/09/02 12:32:32;;;;;;;4.65;3.53;;;23.30;68.90;;;;;;5038572;28;20053;-78
2023/09/02 12:34:57;;;;;;;4.05;3.35;;;23.30;68.80;;;;;;5054935;28;20079;-78
2023/09/02 12:37:24;;;;;;;3.88;3.20;;;23.40;68.80;;;;;;5055647;28;20128;-78
2023/09/02 12:39:50;;;;;;;4.18;3.38;;;23.30;68.70;;;;;;5038286;28;20439;-79
2023/09/02 12:42:24;;;;;;;4.50;3.75;;;23.40;68.80;;;;;;5055784;28;20119;-78
2023/09/02 12:45:00;;;;;;;4.05;3.42;;;23.40;68.70;;;;;;5055790;28;20060;-79
2023/09/02 12:47:27;;;;;;;5.00;3.50;;;23.40;68.70;;;;;;5021700;28;20057;-79
2023/09/02 12:50:03;;;;;;;3.97;3.25;;;23.40;68.70;;;;;;5054897;28;20029;-78